createdAt,value
2022-09-23T00:00:29.975Z,10.73
2022-09-23T00:05:33.143Z,10.69
2022-09-23T00:15:56.795Z,10.59
2022-09-23T00:21:02.126Z,10.68
2022-09-23T00:26:06.792Z,10.64
2022-09-23T00:31:18.146Z,10.58
2022-09-23T00:36:20.049Z,10.56
2022-09-23T00:41:22.079Z,10.51
2022-09-23T00:46:31.262Z,10.41
2022-09-23T00:51:38.733Z,10.31
2022-09-23T00:56:40.792Z,10.22
2022-09-23T01:01:44.397Z,10.19
2022-09-23T01:06:46.344Z,10.12
2022-09-23T01:11:48.462Z,10.06
2022-09-23T01:17:07.481Z,10.02
2022-09-23T01:22:37.026Z,9.96
2022-09-23T01:28:04.305Z,9.81
2022-09-23T01:33:14.852Z,9.78
2022-09-23T01:38:22.573Z,9.78
2022-09-23T01:43:33.982Z,9.84
2022-09-23T01:48:40.057Z,9.86
2022-09-23T01:53:49.600Z,9.85
2022-09-23T01:59:01.622Z,9.85
2022-09-23T02:04:10.119Z,9.85
2022-09-23T02:09:15.921Z,9.91
2022-09-23T02:14:29.423Z,9.90
2022-09-23T02:19:48.076Z,9.85
2022-09-23T02:24:50.205Z,9.76
2022-09-23T02:30:10.457Z,9.69
2022-09-23T02:35:19.829Z,9.66
2022-09-23T02:40:25.228Z,9.71
2022-09-23T02:45:27.676Z,9.74
2022-09-23T02:50:31.043Z,9.76
2022-09-23T02:55:33.340Z,9.76
2022-09-23T03:00:53.997Z,9.74
2022-09-23T03:05:58.934Z,9.70
2022-09-23T03:11:07.201Z,9.63
2022-09-23T03:16:22.528Z,9.68
2022-09-23T03:21:46.415Z,9.63
2022-09-23T03:26:50.021Z,9.57
2022-09-23T03:31:53.255Z,9.54
2022-09-23T03:37:03.197Z,9.58
2022-09-23T03:42:17.296Z,9.64
2022-09-23T03:47:19.083Z,9.64
2022-09-23T03:52:23.217Z,9.62
2022-09-23T03:57:25.773Z,9.54
2022-09-23T04:02:27.630Z,9.49
2022-09-23T04:07:29.554Z,9.44
2022-09-23T04:12:31.398Z,9.41
2022-09-23T04:17:34.303Z,9.43
2022-09-23T04:22:38.641Z,9.45
2022-09-23T04:27:40.483Z,9.44
2022-09-23T04:32:42.274Z,9.48
2022-09-23T04:37:44.335Z,9.53
2022-09-23T04:42:46.111Z,9.54
2022-09-23T04:47:47.916Z,9.52
2022-09-23T04:52:49.706Z,9.52
2022-09-23T04:57:51.668Z,9.54
2022-09-23T05:02:53.487Z,9.53
2022-09-23T05:07:56.249Z,9.55
2022-09-23T05:12:59.200Z,9.61
2022-09-23T05:18:02.583Z,9.68
2022-09-23T05:23:04.788Z,9.73
2022-09-23T05:28:06.963Z,9.80
2022-09-23T05:33:08.761Z,9.91
2022-09-23T05:38:10.549Z,10.14
2022-09-23T05:43:12.325Z,10.37
2022-09-23T05:48:14.099Z,10.63
2022-09-23T05:53:15.979Z,10.91
2022-09-23T05:58:18.013Z,11.22
2022-09-23T06:03:21.147Z,11.52
2022-09-23T06:08:23.965Z,11.81
2022-09-23T06:13:27.555Z,12.13
2022-09-23T06:18:29.333Z,12.53
2022-09-23T06:23:31.367Z,12.87
2022-09-23T06:28:38.062Z,13.14
2022-09-23T06:33:40.554Z,13.38
2022-09-23T06:38:48.625Z,13.72
2022-09-23T06:43:50.468Z,14.13
2022-09-23T06:48:52.422Z,14.45
2022-09-23T06:53:54.348Z,14.77
2022-09-23T06:58:56.182Z,15.05
2022-09-23T07:03:57.985Z,15.41
2022-09-23T07:09:01.131Z,15.82
2022-09-23T07:14:03.358Z,16.20
2022-09-23T07:19:05.361Z,16.59
2022-09-23T07:24:07.671Z,16.94
2022-09-23T07:29:13.793Z,17.30
2022-09-23T07:34:15.634Z,17.64
2022-09-23T07:39:17.494Z,17.90
2022-09-23T07:44:20.308Z,18.11
2022-09-23T07:49:22.258Z,18.37
2022-09-23T07:54:25.714Z,18.51
2022-09-23T07:59:27.620Z,18.79
2022-09-23T08:04:31.315Z,19.17
2022-09-23T08:09:41.885Z,19.41
2022-09-23T08:14:44.572Z,19.66
2022-09-23T08:19:46.461Z,19.85
2022-09-23T08:24:48.350Z,20.05
2022-09-23T08:29:50.158Z,20.23
2022-09-23T08:34:52.285Z,20.32
2022-09-23T08:39:54.083Z,20.44
2022-09-23T08:44:59.106Z,20.65
2022-09-23T08:50:08.807Z,20.82
2022-09-23T08:55:15.092Z,21.02
2022-09-23T09:00:22.874Z,20.99
2022-09-23T09:05:26.954Z,20.87
2022-09-23T09:10:37.851Z,20.69
2022-09-23T09:15:55.949Z,20.45
2022-09-23T09:21:12.655Z,20.16
2022-09-23T09:26:31.961Z,19.93
2022-09-23T09:31:48.626Z,19.81
2022-09-23T09:37:07.472Z,19.68
2022-09-23T09:42:18.614Z,19.57
2022-09-23T09:47:46.830Z,19.34
2022-09-23T09:52:49.175Z,19.63
2022-09-23T09:57:54.059Z,20.17
2022-09-23T10:02:59.430Z,20.51
2022-09-23T10:08:24.343Z,20.79
2022-09-23T10:13:27.506Z,21.02
2022-09-23T10:18:36.120Z,21.20
2022-09-23T10:23:46.633Z,21.02
2022-09-23T10:28:52.986Z,20.87
2022-09-23T10:34:27.321Z,20.84
2022-09-23T10:39:48.195Z,20.73
2022-09-23T10:45:11.322Z,20.79
2022-09-23T10:50:38.468Z,20.76
2022-09-23T10:55:58.109Z,20.72
2022-09-23T11:01:09.608Z,20.94
2022-09-23T11:06:14.149Z,21.18
2022-09-23T11:11:39.466Z,21.39
2022-09-23T11:16:51.216Z,21.45
2022-09-23T11:22:07.144Z,21.49
2022-09-23T11:27:35.375Z,21.28
2022-09-23T11:33:19.209Z,21.04
2022-09-23T11:38:42.350Z,20.95
2022-09-23T11:43:47.416Z,20.94
2022-09-23T11:48:59.206Z,21.00
2022-09-23T11:54:07.367Z,21.04
2022-09-23T11:59:40.591Z,21.08
2022-09-23T12:04:57.143Z,20.98
2022-09-23T12:10:03.591Z,21.01
2022-09-23T12:15:11.313Z,20.96
2022-09-23T12:20:42.367Z,20.90
2022-09-23T12:25:52.568Z,20.76
2022-09-23T12:30:58.854Z,20.70
2022-09-23T12:36:12.314Z,20.71
2022-09-23T12:41:24.037Z,20.81
2022-09-23T12:46:27.679Z,20.84
2022-09-23T12:51:34.757Z,20.83
2022-09-23T12:56:36.502Z,20.71
2022-09-23T13:01:39.033Z,20.89
2022-09-23T13:06:58.822Z,20.98
2022-09-23T13:12:03.701Z,21.02
2022-09-23T13:17:05.731Z,21.44
2022-09-23T13:22:09.575Z,21.80
2022-09-23T13:27:33.376Z,22.05
2022-09-23T13:32:41.238Z,21.86
2022-09-23T13:37:47.947Z,21.70
2022-09-23T13:42:58.045Z,21.65
2022-09-23T13:48:11.042Z,21.56
2022-09-23T13:53:20.568Z,21.45
2022-09-23T13:58:24.446Z,21.33
2022-09-23T14:03:37.203Z,21.23
2022-09-23T14:08:43.040Z,21.11
2022-09-23T14:13:47.216Z,21.07
2022-09-23T14:18:51.916Z,20.95
2022-09-23T14:23:53.809Z,20.92
2022-09-23T14:28:57.026Z,20.87
2022-09-23T14:33:58.952Z,20.81
2022-09-23T14:39:12.374Z,20.80
2022-09-23T14:44:25.813Z,20.72
2022-09-23T14:49:27.903Z,20.73
2022-09-23T14:54:36.053Z,20.81
2022-09-23T14:59:37.861Z,20.84
2022-09-23T15:04:39.719Z,20.90
2022-09-23T15:09:42.639Z,20.85
2022-09-23T15:14:51.454Z,20.87
2022-09-23T15:20:00.757Z,20.84
2022-09-23T15:25:16.935Z,20.68
2022-09-23T15:30:19.843Z,20.47
2022-09-23T15:35:26.738Z,20.31
2022-09-23T15:40:33.925Z,20.16
2022-09-23T15:45:40.474Z,19.99
2022-09-23T15:50:43.016Z,19.87
2022-09-23T15:55:45.508Z,19.73
2022-09-23T16:00:56.065Z,19.57
2022-09-23T16:06:01.268Z,19.44
2022-09-23T16:11:03.303Z,19.37
2022-09-23T16:16:06.123Z,19.29
2022-09-23T16:21:12.572Z,19.26
2022-09-23T16:26:21.629Z,19.17
2022-09-23T16:31:25.636Z,19.06
2022-09-23T16:36:29.008Z,19.00
2022-09-23T16:41:34.479Z,18.93
2022-09-23T16:46:36.902Z,18.84
2022-09-23T16:51:38.938Z,18.78
2022-09-23T16:56:46.494Z,18.71
2022-09-23T17:02:07.222Z,18.65
2022-09-23T17:07:09.571Z,18.58
2022-09-23T17:12:24.423Z,18.50
2022-09-23T17:17:28.488Z,18.40
2022-09-23T17:22:30.547Z,18.28
2022-09-23T17:27:32.379Z,18.13
2022-09-23T17:32:34.174Z,18.00
2022-09-23T17:37:39.241Z,17.83
2022-09-23T17:42:41.556Z,17.70
2022-09-23T17:47:43.335Z,17.59
2022-09-23T17:52:46.219Z,17.52
2022-09-23T17:57:51.212Z,17.44
2022-09-23T18:02:53.237Z,17.37
2022-09-23T18:07:55.707Z,17.33
2022-09-23T18:12:57.855Z,17.30
2022-09-23T18:17:59.753Z,17.24
2022-09-23T18:23:01.654Z,17.15
2022-09-23T18:28:03.644Z,17.09
2022-09-23T18:33:05.810Z,17.01
2022-09-23T18:38:07.840Z,17.00
2022-09-23T18:43:09.728Z,16.95
2022-09-23T18:48:30.265Z,16.85
2022-09-23T18:53:32.479Z,16.82
2022-09-23T18:58:34.397Z,16.59
2022-09-23T19:03:37.262Z,16.46
2022-09-23T19:08:40.176Z,16.51
2022-09-23T19:13:42.577Z,16.36
2022-09-23T19:18:46.744Z,16.35
2022-09-23T19:23:51.751Z,16.20
2022-09-23T19:28:55.711Z,16.12
2022-09-23T19:34:00.646Z,16.05
2022-09-23T19:39:05.829Z,15.92
2022-09-23T19:44:08.084Z,15.85
2022-09-23T19:49:11.478Z,15.82
2022-09-23T19:54:26.235Z,15.79
2022-09-23T19:59:28.290Z,15.72
2022-09-23T20:04:30.206Z,15.67
2022-09-23T20:09:33.900Z,15.60
2022-09-23T20:14:35.749Z,15.61
2022-09-23T20:19:37.544Z,15.63
2022-09-23T20:24:39.393Z,15.60
2022-09-23T20:29:41.304Z,15.47
2022-09-23T20:34:49.738Z,15.19
2022-09-23T20:39:52.653Z,15.00
2022-09-23T20:44:54.952Z,14.84
2022-09-23T20:49:56.735Z,14.64
2022-09-23T20:54:58.722Z,14.47
2022-09-23T21:00:00.674Z,14.38
2022-09-23T21:05:02.563Z,14.28
2022-09-23T21:10:06.929Z,14.30
2022-09-23T21:15:09.035Z,14.25
2022-09-23T21:20:11.589Z,14.18
2022-09-23T21:25:27.527Z,14.17
2022-09-23T21:30:30.147Z,14.09
2022-09-23T21:35:31.937Z,14.07
2022-09-23T21:40:52.259Z,14.10
2022-09-23T21:45:59.683Z,14.18
2022-09-23T21:51:04.466Z,14.22
2022-09-23T21:56:09.814Z,14.22
2022-09-23T22:01:12.760Z,14.20
2022-09-23T22:06:20.340Z,14.12
2022-09-23T22:11:42.499Z,14.18
2022-09-23T22:16:44.534Z,14.25
2022-09-23T22:21:46.753Z,14.27
2022-09-23T22:26:48.536Z,14.29
2022-09-23T22:32:08.874Z,14.23
2022-09-23T22:37:10.652Z,14.18
2022-09-23T22:42:13.207Z,14.20
2022-09-23T22:47:15.342Z,14.26
2022-09-23T22:52:21.213Z,14.30
2022-09-23T22:57:23.120Z,14.30
2022-09-23T23:02:25.027Z,14.29
2022-09-23T23:07:26.853Z,14.31
2022-09-23T23:12:28.711Z,14.26
2022-09-23T23:17:30.540Z,14.21
2022-09-23T23:22:32.328Z,14.18
2022-09-23T23:27:34.695Z,14.15
2022-09-23T23:32:36.826Z,14.14
2022-09-23T23:37:38.832Z,14.17
2022-09-23T23:42:40.743Z,14.17
2022-09-23T23:47:42.789Z,14.13
2022-09-23T23:52:45.540Z,14.15
2022-09-23T23:57:47.371Z,14.21
